Newbury, Massachusetts
Current Conditions -  °F | °C
As of 8:53 AM on Friday 24 Oct 2014 (Local Time) from KBVY Reporting Station
Light Rain Light Rain  
Wind Chill: 50°   Ceiling: 800
Heat Index: 50°   Visibility: 2mi
Dew Point: 47°   Wind: 12mph
Humidity: 89%   Direction: 340°NNW
Pressure: 29.69"   Gusts: NA
Location:  42.79°N, 70.83°W
Report Text: KBVY 241253Z 34010KT 2SM -RA BR BKN008 OVC013 10/08 A2969 RMK AO2 SLP049 P0000 T01000083
Loading
Personal Weather Stations






























Interactive Weather Map
Tropical Storm Tracking
New forecast layout! Learn more

10-Day Weather Forecast

Advertisements
Track Severe Weather on mobile